Time;durP1;ratioP1;P1;durP2;ratioP2;P2;SDS_P1;SDS_P2;PMS_P1;PMS_P2;Temp;Humidity;BMP_temperature;BMP_pressure;BME280_temperature;BME280_humidity;BME280_pressure;Samples;Min_cycle;Max_cycle;Signal;HPM_P1;HPM_P2
2022/03/25 00:01:55;;;;;;;143.43;84.60;;;;;;;;;;5052169;28;20496;-65
2022/03/25 00:05:00;;;;;;;127.47;86.32;;;;;;;;;;5052091;28;20048;-65
2022/03/25 00:08:05;;;;;;;129.25;84.97;;;;;;;;;;5052185;28;20095;-66
2022/03/25 00:11:09;;;;;;;104.53;74.18;;;;;;;;;;5052038;28;20392;-66
2022/03/25 00:14:14;;;;;;;116.18;74.32;;;;;;;;;;5051650;28;20040;-66
2022/03/25 00:17:19;;;;;;;106.22;72.25;;;;;;;;;;5051818;28;20076;-66
2022/03/25 00:20:23;;;;;;;103.72;71.78;;;;;;;;;;5051668;28;20511;-66
2022/03/25 00:23:27;;;;;;;113.50;71.40;;;;;;;;;;5051770;28;20044;-66
2022/03/25 00:26:31;;;;;;;122.60;73.95;;;;;;;;;;5051865;28;20043;-66
2022/03/25 00:29:37;;;;;;;125.38;75.82;;;;;;;;;;5051304;28;20512;-66
2022/03/25 00:32:41;;;;;;;105.80;74.18;;;;;;;;;;5051307;28;20529;-66
2022/03/25 00:35:47;;;;;;;103.57;69.05;;;;;;;;;;5051568;28;20051;-67
2022/03/25 00:38:52;;;;;;;106.78;69.00;;;;;;;;;;5051464;28;20063;-65
2022/03/25 00:41:56;;;;;;;106.80;67.70;;;;;;;;;;5050765;28;20056;-66
2022/03/25 00:45:03;;;;;;;105.50;68.10;;;;;;;;;;5050381;28;20044;-66
2022/03/25 00:48:07;;;;;;;103.35;67.82;;;;;;;;;;5050315;28;20040;-66
2022/03/25 00:51:12;;;;;;;93.15;62.08;;;;;;;;;;5050195;28;20048;-66
2022/03/25 00:54:17;;;;;;;99.93;64.47;;;;;;;;;;5050413;28;20044;-66
2022/03/25 00:57:24;;;;;;;102.45;66.15;;;;;;;;;;5049885;28;20412;-66
2022/03/25 01:00:28;;;;;;;103.38;66.50;;;;;;;;;;5050896;28;20040;-66
2022/03/25 01:03:33;;;;;;;102.03;64.22;;;;;;;;;;5050361;28;20076;-66
2022/03/25 01:06:37;;;;;;;99.57;63.80;;;;;;;;;;5050518;28;20372;-65
2022/03/25 01:09:41;;;;;;;93.50;61.40;;;;;;;;;;5050136;28;20060;-66
2022/03/25 01:12:46;;;;;;;92.90;58.47;;;;;;;;;;5050990;28;20048;-66
2022/03/25 01:15:52;;;;;;;89.00;58.10;;;;;;;;;;5038962;28;20060;-66
2022/03/25 01:18:56;;;;;;;95.47;58.97;;;;;;;;;;5049949;28;20059;-66
2022/03/25 01:22:03;;;;;;;98.97;58.47;;;;;;;;;;5050974;28;20040;-66
2022/03/25 01:25:08;;;;;;;97.05;61.10;;;;;;;;;;5049905;28;20060;-65
2022/03/25 01:28:13;;;;;;;92.30;56.70;;;;;;;;;;5049827;28;20043;-66
2022/03/25 01:31:18;;;;;;;94.78;62.20;;;;;;;;;;5050725;28;20052;-65
2022/03/25 01:34:23;;;;;;;95.20;58.75;;;;;;;;;;5050444;28;20044;-65
2022/03/25 01:37:29;;;;;;;85.32;56.78;;;;;;;;;;5050686;28;20056;-66
2022/03/25 01:40:33;;;;;;;91.95;56.97;;;;;;;;;;5038008;28;20040;-66
2022/03/25 01:43:38;;;;;;;82.93;55.08;;;;;;;;;;5050510;28;20492;-66
2022/03/25 01:46:42;;;;;;;89.32;56.75;;;;;;;;;;5038647;28;20047;-66
2022/03/25 01:49:47;;;;;;;88.82;53.55;;;;;;;;;;5050566;28;20393;-66
2022/03/25 01:52:51;;;;;;;77.82;51.63;;;;;;;;;;5049724;28;20044;-66
2022/03/25 01:55:57;;;;;;;85.13;53.92;;;;;;;;;;5049597;28;20044;-66
2022/03/25 01:59:05;;;;;;;83.53;52.22;;;;;;;;;;5049549;28;20056;-66
2022/03/25 02:02:11;;;;;;;81.15;50.72;;;;;;;;;;5049256;28;20046;-66
2022/03/25 02:05:17;;;;;;;78.68;49.75;;;;;;;;;;5050214;28;20044;-66
2022/03/25 02:08:23;;;;;;;80.43;49.53;;;;;;;;;;5052579;28;20040;-66
2022/03/25 02:11:28;;;;;;;83.47;48.83;;;;;;;;;;5053348;28;20051;-66
2022/03/25 02:14:32;;;;;;;79.72;47.50;;;;;;;;;;5053595;28;20044;-65
2022/03/25 02:17:37;;;;;;;76.70;49.53;;;;;;;;;;5054167;28;20052;-65
2022/03/25 02:20:43;;;;;;;71.22;47.50;;;;;;;;;;5053422;28;20397;-66
2022/03/25 02:23:50;;;;;;;70.90;47.47;;;;;;;;;;5053110;28;20397;-65
2022/03/25 02:26:55;;;;;;;73.78;46.10;;;;;;;;;;5053200;28;20047;-66
2022/03/25 02:29:59;;;;;;;76.15;45.67;;;;;;;;;;5053022;28;20044;-66
2022/03/25 02:33:04;;;;;;;69.60;46.67;;;;;;;;;;5053936;28;20052;-66
2022/03/25 02:36:09;;;;;;;78.53;51.00;;;;;;;;;;5052792;28;20051;-65
2022/03/25 02:39:14;;;;;;;84.15;51.75;;;;;;;;;;5053603;28;20647;-65
2022/03/25 02:42:20;;;;;;;79.22;51.05;;;;;;;;;;5052727;28;20508;-66
2022/03/25 02:45:24;;;;;;;80.35;48.83;;;;;;;;;;5052696;28;20032;-65
2022/03/25 02:48:28;;;;;;;75.80;50.75;;;;;;;;;;5052655;28;20108;-65
2022/03/25 02:51:32;;;;;;;70.45;45.63;;;;;;;;;;5052550;28;20039;-65
2022/03/25 02:54:37;;;;;;;71.90;46.17;;;;;;;;;;5053598;28;20495;-66
2022/03/25 02:57:42;;;;;;;75.38;50.60;;;;;;;;;;5053547;28;20527;-66
2022/03/25 03:00:46;;;;;;;73.55;49.75;;;;;;;;;;5053155;28;20393;-66
2022/03/25 03:03:51;;;;;;;71.70;48.90;;;;;;;;;;5053261;28;20048;-65
2022/03/25 03:06:55;;;;;;;78.97;49.33;;;;;;;;;;5053082;28;20404;-65
2022/03/25 03:09:59;;;;;;;73.70;48.92;;;;;;;;;;5053137;28;20039;-65
2022/03/25 03:13:05;;;;;;;78.45;50.63;;;;;;;;;;5053246;28;20044;-65
2022/03/25 03:16:09;;;;;;;76.57;48.90;;;;;;;;;;5052834;28;20048;-66
2022/03/25 03:19:14;;;;;;;89.03;49.80;;;;;;;;;;5052381;28;20052;-66
2022/03/25 03:22:19;;;;;;;72.97;48.35;;;;;;;;;;5052948;28;20044;-66
2022/03/25 03:25:25;;;;;;;76.55;47.90;;;;;;;;;;5052782;28;20048;-66
2022/03/25 03:28:29;;;;;;;71.45;49.08;;;;;;;;;;5052496;28;20048;-66
2022/03/25 03:31:33;;;;;;;67.50;46.42;;;;;;;;;;5052419;28;20056;-66
2022/03/25 03:34:38;;;;;;;83.15;48.20;;;;;;;;;;5052888;28;20048;-66
2022/03/25 03:37:43;;;;;;;70.13;44.67;;;;;;;;;;5052502;28;20120;-66
2022/03/25 03:40:47;;;;;;;70.53;45.05;;;;;;;;;;5052330;28;20500;-66
2022/03/25 03:43:51;;;;;;;73.35;45.03;;;;;;;;;;5052363;28;20049;-66
2022/03/25 03:46:56;;;;;;;69.80;47.40;;;;;;;;;;5052510;28;20060;-65
2022/03/25 03:50:01;;;;;;;70.95;45.80;;;;;;;;;;5052521;28;20048;-65
2022/03/25 03:53:06;;;;;;;72.95;46.55;;;;;;;;;;5052487;28;20416;-65
2022/03/25 03:56:11;;;;;;;66.95;46.13;;;;;;;;;;5051685;28;20047;-65
2022/03/25 03:59:21;;;;;;;63.80;44.13;;;;;;;;;;5052127;28;20043;-65
2022/03/25 04:02:25;;;;;;;69.40;45.80;;;;;;;;;;5052354;28;20036;-66
2022/03/25 04:05:29;;;;;;;71.85;46.25;;;;;;;;;;5052244;28;20500;-66
2022/03/25 04:08:35;;;;;;;67.32;42.72;;;;;;;;;;5052180;28;20405;-66
2022/03/25 04:11:39;;;;;;;62.67;43.70;;;;;;;;;;5051855;28;20055;-66
2022/03/25 04:14:44;;;;;;;71.50;43.35;;;;;;;;;;5051569;28;20036;-66
2022/03/25 04:17:48;;;;;;;66.78;43.65;;;;;;;;;;5050872;28;20504;-66
2022/03/25 04:20:52;;;;;;;69.78;45.17;;;;;;;;;;5051720;28;20238;-66
2022/03/25 04:23:57;;;;;;;67.65;43.15;;;;;;;;;;5051752;28;20044;-66
2022/03/25 04:27:01;;;;;;;70.45;45.80;;;;;;;;;;5051665;28;20054;-66
2022/03/25 04:30:06;;;;;;;66.05;43.25;;;;;;;;;;5051040;28;20047;-66
2022/03/25 04:33:10;;;;;;;70.43;44.33;;;;;;;;;;5051717;28;20044;-66
2022/03/25 04:36:14;;;;;;;67.50;45.40;;;;;;;;;;5051408;28;20039;-66
2022/03/25 04:39:18;;;;;;;71.65;45.10;;;;;;;;;;5051406;28;20051;-66
2022/03/25 04:42:22;;;;;;;68.97;43.05;;;;;;;;;;5051324;28;20053;-66
2022/03/25 04:45:28;;;;;;;63.85;42.10;;;;;;;;;;5051350;28;20048;-66
2022/03/25 04:48:33;;;;;;;64.40;40.38;;;;;;;;;;5051346;28;20047;-66
2022/03/25 04:51:37;;;;;;;61.42;38.45;;;;;;;;;;5051125;28;20064;-66
2022/03/25 04:54:42;;;;;;;57.28;37.55;;;;;;;;;;5051418;28;20040;-65
2022/03/25 04:57:47;;;;;;;52.08;35.38;;;;;;;;;;5051230;28;20071;-67
2022/03/25 05:00:51;;;;;;;57.05;37.63;;;;;;;;;;5051004;28;20035;-66
2022/03/25 05:03:55;;;;;;;57.20;35.75;;;;;;;;;;5050981;28;20499;-66
2022/03/25 05:07:00;;;;;;;54.17;32.90;;;;;;;;;;5051528;28;20376;-66
2022/03/25 05:10:04;;;;;;;61.83;33.38;;;;;;;;;;5050835;28;20044;-66
2022/03/25 05:13:09;;;;;;;57.15;35.08;;;;;;;;;;5050963;28;20056;-67
2022/03/25 05:16:13;;;;;;;62.65;36.60;;;;;;;;;;5050640;28;20055;-67
2022/03/25 05:19:17;;;;;;;54.08;33.30;;;;;;;;;;5050937;28;20060;-67
2022/03/25 05:22:22;;;;;;;53.35;32.20;;;;;;;;;;5050820;28;20507;-66
2022/03/25 05:25:26;;;;;;;50.58;33.25;;;;;;;;;;5051062;28;20047;-66
2022/03/25 05:28:30;;;;;;;51.13;33.05;;;;;;;;;;5050989;28;20043;-66
2022/03/25 05:31:36;;;;;;;67.75;35.25;;;;;;;;;;5050678;28;20044;-68
2022/03/25 05:34:41;;;;;;;54.17;34.97;;;;;;;;;;5050853;28;20040;-66
2022/03/25 05:37:45;;;;;;;53.28;33.67;;;;;;;;;;5050496;28;20056;-66
2022/03/25 05:40:49;;;;;;;46.85;30.90;;;;;;;;;;5050406;28;20050;-66
2022/03/25 05:43:54;;;;;;;53.25;30.00;;;;;;;;;;5054989;28;20072;-66
2022/03/25 05:46:58;;;;;;;54.03;29.00;;;;;;;;;;5054760;28;20044;-67
2022/03/25 05:50:03;;;;;;;47.80;28.17;;;;;;;;;;5054429;28;20040;-67
2022/03/25 05:53:08;;;;;;;45.25;30.67;;;;;;;;;;5054341;28;20048;-66
2022/03/25 05:56:13;;;;;;;57.38;32.58;;;;;;;;;;5054250;28;20044;-67
2022/03/25 05:59:17;;;;;;;57.90;32.42;;;;;;;;;;5054182;28;20056;-67
2022/03/25 06:02:22;;;;;;;58.10;32.70;;;;;;;;;;5054570;28;20044;-66
2022/03/25 06:05:27;;;;;;;53.97;32.20;;;;;;;;;;5054364;28;20044;-67
2022/03/25 06:08:31;;;;;;;48.17;33.35;;;;;;;;;;5053737;28;20500;-66
2022/03/25 06:11:36;;;;;;;48.40;33.20;;;;;;;;;;5054135;28;20624;-66
2022/03/25 06:14:40;;;;;;;52.40;34.53;;;;;;;;;;5053667;28;20063;-67
2022/03/25 06:17:45;;;;;;;57.10;33.17;;;;;;;;;;5053961;28;20052;-67
2022/03/25 06:20:49;;;;;;;46.10;33.90;;;;;;;;;;5054059;28;20059;-66
2022/03/25 06:23:54;;;;;;;51.53;36.45;;;;;;;;;;5054185;28;20044;-67
2022/03/25 06:26:58;;;;;;;65.60;37.35;;;;;;;;;;5053749;28;20044;-67
2022/03/25 06:30:03;;;;;;;57.13;37.85;;;;;;;;;;5053798;28;20056;-67
2022/03/25 06:33:11;;;;;;;55.67;37.85;;;;;;;;;;5053275;28;20044;-67
2022/03/25 06:36:15;;;;;;;52.00;36.28;;;;;;;;;;5053728;28;20495;-68
2022/03/25 06:39:19;;;;;;;58.22;36.63;;;;;;;;;;5053605;28;20400;-67
2022/03/25 06:42:24;;;;;;;53.40;33.17;;;;;;;;;;5053770;28;20052;-66
2022/03/25 06:45:28;;;;;;;52.30;33.35;;;;;;;;;;5053625;28;20043;-67
2022/03/25 06:48:33;;;;;;;45.90;31.00;;;;;;;;;;5053214;28;20046;-67
2022/03/25 06:51:38;;;;;;;42.30;30.52;;;;;;;;;;5052989;28;20043;-67
2022/03/25 06:54:42;;;;;;;41.38;28.13;;;;;;;;;;5051703;28;20048;-66
2022/03/25 06:57:46;;;;;;;41.60;26.88;;;;;;;;;;5053035;28;20048;-66
2022/03/25 07:00:51;;;;;;;40.72;25.67;;;;;;;;;;5053059;28;20051;-66
2022/03/25 07:03:56;;;;;;;41.35;27.77;;;;;;;;;;5053161;28;20044;-66
2022/03/25 07:07:00;;;;;;;40.45;25.90;;;;;;;;;;5052410;28;20063;-66
2022/03/25 07:10:06;;;;;;;48.20;25.13;;;;;;;;;;5052636;28;20040;-66
2022/03/25 07:13:10;;;;;;;40.63;24.58;;;;;;;;;;5052813;28;20052;-68
2022/03/25 07:16:15;;;;;;;39.97;25.00;;;;;;;;;;5051647;28;20060;-68
2022/03/25 07:19:19;;;;;;;46.20;26.38;;;;;;;;;;5052996;28;20106;-69
2022/03/25 07:22:24;;;;;;;44.65;30.27;;;;;;;;;;5053183;28;20111;-67
2022/03/25 07:25:29;;;;;;;44.10;28.35;;;;;;;;;;5053048;28;20052;-70
2022/03/25 07:28:34;;;;;;;540.60;61.50;;;;;;;;;;5052833;28;20048;-70
2022/03/25 07:31:38;;;;;;;56.47;28.60;;;;;;;;;;5052152;28;20644;-63
2022/03/25 07:34:42;;;;;;;45.90;29.80;;;;;;;;;;5052829;28;20048;-63
2022/03/25 07:37:47;;;;;;;40.42;29.05;;;;;;;;;;5052657;28;20055;-62
2022/03/25 07:40:51;;;;;;;40.40;29.90;;;;;;;;;;5052216;28;20052;-64
2022/03/25 07:43:55;;;;;;;44.38;30.73;;;;;;;;;;5051528;28;20048;-63
2022/03/25 07:46:59;;;;;;;42.42;31.48;;;;;;;;;;5051792;28;20400;-62
2022/03/25 07:50:04;;;;;;;41.30;30.52;;;;;;;;;;5052325;28;20056;-63
2022/03/25 07:53:09;;;;;;;36.17;29.77;;;;;;;;;;5052633;28;20044;-62
2022/03/25 07:56:13;;;;;;;36.00;28.20;;;;;;;;;;5052193;28;20051;-62
2022/03/25 07:59:17;;;;;;;40.92;28.63;;;;;;;;;;5052204;28;20060;-62
2022/03/25 08:02:22;;;;;;;41.30;29.17;;;;;;;;;;5052449;28;20386;-61
2022/03/25 08:05:27;;;;;;;35.95;25.77;;;;;;;;;;5052090;28;20044;-63
2022/03/25 08:08:31;;;;;;;34.20;27.13;;;;;;;;;;5051727;28;20044;-63
2022/03/25 08:11:35;;;;;;;42.85;29.58;;;;;;;;;;5050624;28;20040;-64
2022/03/25 08:14:39;;;;;;;41.60;32.03;;;;;;;;;;5050618;28;20040;-64
2022/03/25 08:17:48;;;;;;;40.00;27.92;;;;;;;;;;5051857;28;20060;-63
2022/03/25 08:20:53;;;;;;;35.85;25.80;;;;;;;;;;5051916;28;20500;-62
2022/03/25 08:30:44;;;;;;;33.80;25.65;;;;;;;;;;5051325;28;20060;-62
2022/03/25 08:33:48;;;;;;;40.13;27.00;;;;;;;;;;5051274;28;20052;-62
2022/03/25 08:36:53;;;;;;;35.70;26.30;;;;;;;;;;5051480;28;20047;-61
2022/03/25 08:39:57;;;;;;;30.48;25.80;;;;;;;;;;5051359;28;20496;-63
2022/03/25 08:43:02;;;;;;;37.38;26.25;;;;;;;;;;5051489;28;20044;-62
2022/03/25 08:46:07;;;;;;;36.67;28.52;;;;;;;;;;5051011;28;20499;-63
2022/03/25 08:49:12;;;;;;;33.55;25.33;;;;;;;;;;5050879;28;20499;-63
2022/03/25 08:52:20;;;;;;;36.65;25.33;;;;;;;;;;5051132;28;20072;-63
2022/03/25 08:55:25;;;;;;;36.70;24.38;;;;;;;;;;5051129;28;20158;-64
2022/03/25 08:58:29;;;;;;;33.20;25.63;;;;;;;;;;5050755;28;20476;-63
2022/03/25 09:01:34;;;;;;;30.70;23.85;;;;;;;;;;5050405;28;20310;-62
2022/03/25 09:04:38;;;;;;;34.17;23.65;;;;;;;;;;5050133;28;20056;-62
2022/03/25 09:07:43;;;;;;;31.08;22.50;;;;;;;;;;5050850;28;20056;-62
2022/03/25 09:10:48;;;;;;;36.25;24.63;;;;;;;;;;5050636;28;20052;-62
2022/03/25 09:13:52;;;;;;;33.08;22.95;;;;;;;;;;5050823;28;20040;-61
2022/03/25 09:16:56;;;;;;;26.90;22.25;;;;;;;;;;5049766;28;20131;-62
2022/03/25 09:20:03;;;;;;;34.50;27.65;;;;;;;;;;5050485;28;20223;-62
2022/03/25 09:23:08;;;;;;;34.40;24.70;;;;;;;;;;5049940;28;20052;-62
2022/03/25 09:26:13;;;;;;;36.38;28.08;;;;;;;;;;5050445;28;20056;-62
2022/03/25 09:29:17;;;;;;;33.78;22.63;;;;;;;;;;5050126;28;20048;-63
2022/03/25 09:32:21;;;;;;;36.47;23.63;;;;;;;;;;5050253;28;20048;-64
2022/03/25 09:35:26;;;;;;;40.33;27.73;;;;;;;;;;5050283;28;20048;-62
2022/03/25 09:38:30;;;;;;;40.15;26.05;;;;;;;;;;5049599;28;20409;-62
2022/03/25 09:41:35;;;;;;;28.90;21.75;;;;;;;;;;5050181;28;20099;-62
2022/03/25 09:44:41;;;;;;;31.40;24.13;;;;;;;;;;5050156;28;20393;-64
2022/03/25 09:47:47;;;;;;;31.15;23.48;;;;;;;;;;5050028;28;20056;-64
2022/03/25 09:50:52;;;;;;;37.30;26.98;;;;;;;;;;5050254;28;20067;-63
2022/03/25 09:53:58;;;;;;;25.40;20.42;;;;;;;;;;5050300;28;20048;-62
2022/03/25 09:57:03;;;;;;;38.47;27.13;;;;;;;;;;5050492;28;20108;-62
2022/03/25 10:00:09;;;;;;;36.85;27.00;;;;;;;;;;5050046;28;20397;-62
2022/03/25 10:03:23;;;;;;;39.65;30.27;;;;;;;;;;5050326;28;20036;-62
2022/03/25 10:06:27;;;;;;;38.42;28.42;;;;;;;;;;5049972;28;20048;-62
2022/03/25 10:09:31;;;;;;;37.00;29.35;;;;;;;;;;5050040;28;20040;-61
2022/03/25 10:12:36;;;;;;;33.58;27.50;;;;;;;;;;5050230;28;20120;-62
2022/03/25 10:15:40;;;;;;;43.20;27.65;;;;;;;;;;5050012;28;20060;-62
2022/03/25 10:18:53;;;;;;;35.58;24.70;;;;;;;;;;5050331;28;20064;-61
2022/03/25 10:21:58;;;;;;;36.33;25.85;;;;;;;;;;5049838;28;20044;-62
2022/03/25 10:25:09;;;;;;;34.20;25.48;;;;;;;;;;5049934;28;20056;-62
2022/03/25 10:28:25;;;;;;;36.38;26.65;;;;;;;;;;5049233;28;20558;-62
2022/03/25 10:31:29;;;;;;;34.25;24.45;;;;;;;;;;5053115;28;20048;-62
2022/03/25 10:34:33;;;;;;;36.97;26.35;;;;;;;;;;5053137;28;20047;-62
2022/03/25 10:37:39;;;;;;;33.22;24.80;;;;;;;;;;5053336;28;20392;-62
2022/03/25 10:40:54;;;;;;;36.45;27.27;;;;;;;;;;5053035;28;20048;-62
2022/03/25 10:44:03;;;;;;;34.65;24.88;;;;;;;;;;5053158;28;20040;-62
2022/03/25 10:47:16;;;;;;;31.05;25.30;;;;;;;;;;5053443;28;20055;-62
2022/03/25 10:50:21;;;;;;;29.48;23.92;;;;;;;;;;5052927;28;20051;-61
2022/03/25 10:53:27;;;;;;;37.53;28.10;;;;;;;;;;5052827;28;20048;-62
2022/03/25 10:56:44;;;;;;;33.55;25.77;;;;;;;;;;5052814;28;20056;-63
2022/03/25 10:59:59;;;;;;;36.03;27.80;;;;;;;;;;5052792;28;20516;-63
2022/03/25 11:03:04;;;;;;;41.90;27.00;;;;;;;;;;5053178;28;20036;-62
2022/03/25 11:06:08;;;;;;;39.30;28.20;;;;;;;;;;5053059;28;20044;-61
2022/03/25 11:09:13;;;;;;;34.75;26.02;;;;;;;;;;5052778;28;20413;-65
2022/03/25 11:12:18;;;;;;;36.28;26.38;;;;;;;;;;5052142;28;20048;-64
2022/03/25 11:15:22;;;;;;;33.97;22.95;;;;;;;;;;5052457;28;20056;-61
2022/03/25 11:18:28;;;;;;;30.02;23.70;;;;;;;;;;5052229;28;20060;-62
2022/03/25 11:21:34;;;;;;;34.42;24.13;;;;;;;;;;5052661;28;20060;-62
2022/03/25 11:24:46;;;;;;;28.00;21.30;;;;;;;;;;5053285;28;20116;-63
2022/03/25 11:27:53;;;;;;;32.30;21.80;;;;;;;;;;5052656;28;20043;-63
2022/03/25 11:30:58;;;;;;;27.92;21.42;;;;;;;;;;5052744;28;20060;-62
2022/03/25 11:34:10;;;;;;;32.97;23.30;;;;;;;;;;5052638;28;20385;-63
2022/03/25 11:37:16;;;;;;;33.03;22.75;;;;;;;;;;5052865;28;20511;-64
2022/03/25 11:40:25;;;;;;;30.80;24.60;;;;;;;;;;5052098;28;20052;-62
2022/03/25 11:43:30;;;;;;;27.83;20.60;;;;;;;;;;5052277;28;20052;-63
2022/03/25 11:46:34;;;;;;;28.67;21.17;;;;;;;;;;5052246;28;20060;-62
2022/03/25 11:49:38;;;;;;;28.48;22.92;;;;;;;;;;5052246;28;20048;-62
2022/03/25 11:52:43;;;;;;;30.25;22.23;;;;;;;;;;5052702;28;20048;-63
2022/03/25 11:55:58;;;;;;;33.90;24.40;;;;;;;;;;5052295;28;20052;-63
2022/03/25 11:59:03;;;;;;;31.05;23.63;;;;;;;;;;5052364;28;20052;-63
2022/03/25 12:02:26;;;;;;;31.30;25.30;;;;;;;;;;5052189;28;20408;-65
2022/03/25 12:05:32;;;;;;;41.67;29.70;;;;;;;;;;5050865;28;20048;-61
2022/03/25 12:08:36;;;;;;;37.00;26.38;;;;;;;;;;5051400;28;20048;-61
2022/03/25 12:11:58;;;;;;;35.22;26.70;;;;;;;;;;5051267;28;20396;-63
2022/03/25 12:15:10;;;;;;;37.70;27.70;;;;;;;;;;5050688;28;20056;-61
2022/03/25 12:18:33;;;;;;;35.08;24.33;;;;;;;;;;5051055;28;20056;-60
2022/03/25 12:21:40;;;;;;;32.40;23.70;;;;;;;;;;5051242;28;20488;-62
2022/03/25 12:24:46;;;;;;;33.28;26.30;;;;;;;;;;5051735;28;20048;-61
2022/03/25 12:27:51;;;;;;;39.17;27.95;;;;;;;;;;5051667;28;20515;-61
2022/03/25 12:30:56;;;;;;;32.85;25.30;;;;;;;;;;5051404;28;20043;-60
2022/03/25 12:34:01;;;;;;;38.40;25.48;;;;;;;;;;5051235;28;20048;-61
2022/03/25 12:37:07;;;;;;;34.17;24.20;;;;;;;;;;5050982;28;20040;-61
2022/03/25 12:40:16;;;;;;;29.98;23.38;;;;;;;;;;5051050;28;20052;-61
2022/03/25 12:43:28;;;;;;;34.80;24.98;;;;;;;;;;5051592;28;20393;-60
2022/03/25 12:46:32;;;;;;;37.60;24.30;;;;;;;;;;5051541;28;20500;-61
2022/03/25 12:49:36;;;;;;;37.30;24.13;;;;;;;;;;5051579;28;20384;-61
2022/03/25 12:52:40;;;;;;;32.75;21.75;;;;;;;;;;5050144;28;20048;-60
2022/03/25 12:55:44;;;;;;;29.42;21.05;;;;;;;;;;5050944;28;20036;-61
2022/03/25 12:58:50;;;;;;;34.30;22.23;;;;;;;;;;5050810;28;20059;-61
2022/03/25 13:01:54;;;;;;;27.13;21.25;;;;;;;;;;5051262;28;20060;-61
2022/03/25 13:05:12;;;;;;;34.17;21.15;;;;;;;;;;5051289;28;20035;-61
2022/03/25 13:08:17;;;;;;;70.38;25.08;;;;;;;;;;5051166;28;20040;-61
2022/03/25 13:11:21;;;;;;;41.08;22.70;;;;;;;;;;5050775;28;20051;-61
2022/03/25 13:14:25;;;;;;;33.55;21.25;;;;;;;;;;5049769;28;20047;-61
2022/03/25 13:17:37;;;;;;;26.75;18.92;;;;;;;;;;5051007;28;20060;-61
2022/03/25 13:20:42;;;;;;;33.20;19.73;;;;;;;;;;5050520;28;20048;-61
2022/03/25 13:23:46;;;;;;;35.90;20.42;;;;;;;;;;5051265;28;20492;-62
2022/03/25 13:26:50;;;;;;;21.52;17.20;;;;;;;;;;5050647;28;20064;-61
2022/03/25 13:29:55;;;;;;;29.75;21.42;;;;;;;;;;5049699;28;20045;-60
2022/03/25 13:33:01;;;;;;;29.95;19.20;;;;;;;;;;5050772;28;20044;-62
2022/03/25 13:36:05;;;;;;;25.35;16.90;;;;;;;;;;5050949;28;20048;-61
2022/03/25 13:39:10;;;;;;;25.10;17.30;;;;;;;;;;5049509;28;20127;-61
2022/03/25 13:42:14;;;;;;;34.40;20.90;;;;;;;;;;5050692;28;20055;-60
2022/03/25 13:45:19;;;;;;;24.45;18.40;;;;;;;;;;5050535;28;20044;-62
2022/03/25 13:48:23;;;;;;;24.65;17.45;;;;;;;;;;5050828;28;20044;-61
2022/03/25 13:51:32;;;;;;;26.23;18.65;;;;;;;;;;5050755;28;20392;-61
2022/03/25 13:54:37;;;;;;;29.73;18.92;;;;;;;;;;5050590;28;20487;-61
2022/03/25 13:57:42;;;;;;;24.92;16.95;;;;;;;;;;5050372;28;20044;-61
2022/03/25 14:00:53;;;;;;;30.88;20.25;;;;;;;;;;5050109;28;20056;-61
2022/03/25 14:04:04;;;;;;;20.77;16.00;;;;;;;;;;5052736;28;20044;-61
2022/03/25 14:07:16;;;;;;;23.90;16.83;;;;;;;;;;5054179;28;20052;-61
2022/03/25 14:10:20;;;;;;;26.70;16.45;;;;;;;;;;5054205;28;20044;-61
2022/03/25 14:13:25;;;;;;;23.25;15.70;;;;;;;;;;5054235;28;20047;-61
2022/03/25 14:16:33;;;;;;;30.92;16.23;;;;;;;;;;5054146;28;20055;-61
2022/03/25 14:19:37;;;;;;;23.77;16.08;;;;;;;;;;5053976;28;20071;-61
2022/03/25 14:22:42;;;;;;;38.75;18.70;;;;;;;;;;5053991;28;20504;-61
2022/03/25 14:25:47;;;;;;;25.38;18.13;;;;;;;;;;5054203;28;20048;-61
2022/03/25 14:28:56;;;;;;;30.27;16.85;;;;;;;;;;5054170;28;20607;-61
2022/03/25 14:32:00;;;;;;;19.25;14.93;;;;;;;;;;5054116;28;20036;-60
2022/03/25 14:35:05;;;;;;;29.75;18.80;;;;;;;;;;5054174;28;20052;-61
2022/03/25 14:38:10;;;;;;;21.70;16.85;;;;;;;;;;5056204;28;20044;-60
2022/03/25 14:41:14;;;;;;;27.75;15.88;;;;;;;;;;5053770;28;20052;-62
2022/03/25 14:44:19;;;;;;;21.50;14.77;;;;;;;;;;5053693;28;20056;-62
2022/03/25 14:47:23;;;;;;;27.42;17.92;;;;;;;;;;5053602;28;20055;-63
2022/03/25 14:50:27;;;;;;;21.95;14.32;;;;;;;;;;5053196;28;20059;-63
2022/03/25 14:53:31;;;;;;;24.77;15.45;;;;;;;;;;5053453;28;20040;-63
2022/03/25 14:56:36;;;;;;;30.48;16.15;;;;;;;;;;5053402;28;20036;-63
2022/03/25 14:59:41;;;;;;;22.98;15.25;;;;;;;;;;5053237;28;20048;-62
2022/03/25 15:02:45;;;;;;;21.92;15.57;;;;;;;;;;5053504;28;20036;-62
2022/03/25 15:05:49;;;;;;;22.77;16.95;;;;;;;;;;5053142;28;20044;-63
2022/03/25 15:08:54;;;;;;;20.63;15.77;;;;;;;;;;5052883;28;20112;-61
2022/03/25 15:11:58;;;;;;;20.83;15.43;;;;;;;;;;5052979;28;20044;-62
2022/03/25 15:15:03;;;;;;;34.08;16.83;;;;;;;;;;5052285;28;20044;-61
2022/03/25 15:18:08;;;;;;;26.88;16.13;;;;;;;;;;5052945;28;20048;-62
2022/03/25 15:21:12;;;;;;;27.33;15.68;;;;;;;;;;5052648;28;20056;-61
2022/03/25 15:24:16;;;;;;;18.13;15.05;;;;;;;;;;5052774;28;20044;-63
2022/03/25 15:27:21;;;;;;;38.45;17.38;;;;;;;;;;5053220;28;20049;-61
2022/03/25 15:37:10;;;;;;;35.33;15.10;;;;;;;;;;5052524;28;20504;-62
2022/03/25 15:40:17;;;;;;;24.83;15.50;;;;;;;;;;5052401;28;20063;-63
2022/03/25 15:43:21;;;;;;;24.92;15.07;;;;;;;;;;5052491;28;20040;-63
2022/03/25 15:46:26;;;;;;;32.55;18.27;;;;;;;;;;5052456;28;20472;-63
2022/03/25 15:49:30;;;;;;;29.25;15.63;;;;;;;;;;5052356;28;20218;-62
2022/03/25 15:52:35;;;;;;;30.67;15.65;;;;;;;;;;5052321;28;20047;-62
2022/03/25 15:55:39;;;;;;;42.00;16.15;;;;;;;;;;5051122;28;20044;-61
2022/03/25 15:58:43;;;;;;;20.23;15.00;;;;;;;;;;5051973;28;20044;-62
2022/03/25 16:01:48;;;;;;;33.92;16.45;;;;;;;;;;5051978;28;20047;-62
2022/03/25 16:04:52;;;;;;;26.10;14.63;;;;;;;;;;5052025;28;20048;-62
2022/03/25 16:07:57;;;;;;;24.83;14.85;;;;;;;;;;5051741;28;20052;-63
2022/03/25 16:11:02;;;;;;;28.27;16.10;;;;;;;;;;5051396;28;20389;-63
2022/03/25 16:14:07;;;;;;;28.77;15.80;;;;;;;;;;5051492;28;20496;-62
2022/03/25 16:17:11;;;;;;;27.92;14.82;;;;;;;;;;5011882;28;20060;-62
2022/03/25 16:20:15;;;;;;;28.92;16.58;;;;;;;;;;5011792;28;20061;-62
2022/03/25 16:23:20;;;;;;;34.25;15.68;;;;;;;;;;5012007;28;20497;-63
2022/03/25 16:26:24;;;;;;;25.15;15.13;;;;;;;;;;5012108;28;20381;-62
2022/03/25 16:29:29;;;;;;;34.95;15.85;;;;;;;;;;5011807;28;20049;-62
2022/03/25 16:32:33;;;;;;;26.55;15.52;;;;;;;;;;5011831;28;20049;-62
2022/03/25 16:35:38;;;;;;;27.70;15.63;;;;;;;;;;5011548;28;20056;-64
2022/03/25 16:38:42;;;;;;;31.50;16.00;;;;;;;;;;5011066;28;20044;-62
2022/03/25 16:41:47;;;;;;;23.73;14.77;;;;;;;;;;5011352;28;20433;-63
2022/03/25 16:44:51;;;;;;;27.45;15.57;;;;;;;;;;5011615;28;20052;-63
2022/03/25 16:47:55;;;;;;;28.65;16.40;;;;;;;;;;5011003;28;20064;-63
2022/03/25 16:50:59;;;;;;;28.83;15.80;;;;;;;;;;5011083;28;20497;-63
2022/03/25 16:54:04;;;;;;;29.38;15.57;;;;;;;;;;5011463;28;20159;-64
2022/03/25 16:57:08;;;;;;;26.65;16.67;;;;;;;;;;5010973;28;20053;-63
2022/03/25 17:00:14;;;;;;;29.42;16.50;;;;;;;;;;5009590;28;20061;-62
2022/03/25 17:03:18;;;;;;;31.17;16.40;;;;;;;;;;5011140;28;20489;-62
2022/03/25 17:06:23;;;;;;;27.80;16.60;;;;;;;;;;5011103;28;20044;-62
2022/03/25 17:09:28;;;;;;;37.42;17.88;;;;;;;;;;5010763;28;20065;-63
2022/03/25 17:12:32;;;;;;;27.40;17.75;;;;;;;;;;5011270;28;20389;-62
2022/03/25 17:15:37;;;;;;;35.08;20.13;;;;;;;;;;5027790;28;20056;-63
2022/03/25 17:18:41;;;;;;;35.38;19.70;;;;;;;;;;5050105;28;20048;-63
2022/03/25 17:21:46;;;;;;;29.60;18.65;;;;;;;;;;5050459;28;20068;-61
2022/03/25 17:24:50;;;;;;;32.17;18.40;;;;;;;;;;5050508;28;20044;-62
2022/03/25 17:27:54;;;;;;;33.00;19.35;;;;;;;;;;5050735;28;20171;-63
2022/03/25 17:30:59;;;;;;;33.65;19.90;;;;;;;;;;5049899;28;20051;-64
2022/03/25 17:34:04;;;;;;;33.25;21.20;;;;;;;;;;5049380;28;20538;-68
2022/03/25 17:37:08;;;;;;;34.22;20.00;;;;;;;;;;5050350;28;20036;-68
2022/03/25 17:40:12;;;;;;;31.73;20.27;;;;;;;;;;5056728;28;20067;-67
2022/03/25 17:43:17;;;;;;;33.28;21.35;;;;;;;;;;5057077;28;20040;-66
2022/03/25 17:46:22;;;;;;;37.55;22.67;;;;;;;;;;5057228;28;20490;-69
2022/03/25 17:49:26;;;;;;;37.67;24.38;;;;;;;;;;5057094;28;20052;-70
2022/03/25 17:52:31;;;;;;;49.97;30.38;;;;;;;;;;5056804;28;20392;-70
2022/03/25 17:55:35;;;;;;;46.53;31.30;;;;;;;;;;5056153;28;20059;-70
2022/03/25 17:58:39;;;;;;;45.00;28.45;;;;;;;;;;5056462;28;20044;-68
2022/03/25 18:01:44;;;;;;;44.28;28.95;;;;;;;;;;5056774;28;20099;-68
2022/03/25 18:04:48;;;;;;;41.47;27.90;;;;;;;;;;5056619;28;20070;-69
2022/03/25 18:07:52;;;;;;;42.60;31.05;;;;;;;;;;5056647;28;20044;-68
2022/03/25 18:10:57;;;;;;;39.08;29.80;;;;;;;;;;5055494;28;20044;-67